sensor_id;sensor_type;location;lat;lon;timestamp;P1;durP1;ratioP1;P2;durP2;ratioP2
45812;SDS011;31519;45.408;10.962;2023-03-01T00:01:45;17.60;;;8.60;;
45812;SDS011;31519;45.408;10.962;2023-03-01T00:04:13;15.52;;;7.63;;
45812;SDS011;31519;45.408;10.962;2023-03-01T00:06:42;22.50;;;9.13;;
45812;SDS011;31519;45.408;10.962;2023-03-01T00:09:14;17.05;;;8.65;;
45812;SDS011;31519;45.408;10.962;2023-03-01T00:11:44;20.52;;;9.30;;
45812;SDS011;31519;45.408;10.962;2023-03-01T00:14:12;19.10;;;9.50;;
45812;SDS011;31519;45.408;10.962;2023-03-01T00:16:41;16.77;;;8.55;;
45812;SDS011;31519;45.408;10.962;2023-03-01T00:19:12;17.38;;;9.15;;
45812;SDS011;31519;45.408;10.962;2023-03-01T00:21:42;23.45;;;8.65;;
45812;SDS011;31519;45.408;10.962;2023-03-01T00:24:11;14.27;;;7.35;;
45812;SDS011;31519;45.408;10.962;2023-03-01T00:26:39;14.65;;;8.25;;
45812;SDS011;31519;45.408;10.962;2023-03-01T00:29:07;22.20;;;9.48;;
45812;SDS011;31519;45.408;10.962;2023-03-01T00:31:35;23.73;;;9.38;;
45812;SDS011;31519;45.408;10.962;2023-03-01T00:34:05;20.52;;;10.05;;
45812;SDS011;31519;45.408;10.962;2023-03-01T00:36:34;20.55;;;10.43;;
45812;SDS011;31519;45.408;10.962;2023-03-01T00:39:05;18.73;;;9.85;;
45812;SDS011;31519;45.408;10.962;2023-03-01T00:41:38;19.30;;;8.95;;
45812;SDS011;31519;45.408;10.962;2023-03-01T00:44:08;23.52;;;10.55;;
45812;SDS011;31519;45.408;10.962;2023-03-01T00:46:37;21.50;;;10.38;;
45812;SDS011;31519;45.408;10.962;2023-03-01T00:49:06;18.30;;;10.48;;
45812;SDS011;31519;45.408;10.962;2023-03-01T00:51:34;20.55;;;10.90;;
45812;SDS011;31519;45.408;10.962;2023-03-01T00:54:02;24.75;;;11.07;;
45812;SDS011;31519;45.408;10.962;2023-03-01T00:56:31;27.10;;;10.73;;
45812;SDS011;31519;45.408;10.962;2023-03-01T00:59:00;55.63;;;21.58;;
45812;SDS011;31519;45.408;10.962;2023-03-01T01:01:29;27.08;;;12.75;;
45812;SDS011;31519;45.408;10.962;2023-03-01T01:04:02;19.00;;;11.35;;
45812;SDS011;31519;45.408;10.962;2023-03-01T01:06:34;31.45;;;11.63;;
45812;SDS011;31519;45.408;10.962;2023-03-01T01:09:04;25.70;;;12.82;;
45812;SDS011;31519;45.408;10.962;2023-03-01T01:11:34;24.23;;;11.48;;
45812;SDS011;31519;45.408;10.962;2023-03-01T01:14:06;25.73;;;11.88;;
45812;SDS011;31519;45.408;10.962;2023-03-01T01:16:34;25.85;;;11.95;;
45812;SDS011;31519;45.408;10.962;2023-03-01T01:19:02;22.60;;;10.05;;
45812;SDS011;31519;45.408;10.962;2023-03-01T01:21:30;16.27;;;9.52;;
45812;SDS011;31519;45.408;10.962;2023-03-01T01:23:59;22.73;;;11.15;;
45812;SDS011;31519;45.408;10.962;2023-03-01T01:26:28;19.35;;;10.80;;
45812;SDS011;31519;45.408;10.962;2023-03-01T01:28:59;24.63;;;11.65;;
45812;SDS011;31519;45.408;10.962;2023-03-01T01:31:29;25.08;;;12.57;;
45812;SDS011;31519;45.408;10.962;2023-03-01T01:33:58;25.73;;;11.75;;
45812;SDS011;31519;45.408;10.962;2023-03-01T01:36:28;27.48;;;12.30;;
45812;SDS011;31519;45.408;10.962;2023-03-01T01:38:57;30.58;;;13.95;;
45812;SDS011;31519;45.408;10.962;2023-03-01T01:41:26;25.35;;;12.80;;
45812;SDS011;31519;45.408;10.962;2023-03-01T01:44:13;30.13;;;13.35;;
45812;SDS011;31519;45.408;10.962;2023-03-01T01:52:22;26.92;;;12.60;;
45812;SDS011;31519;45.408;10.962;2023-03-01T01:55:07;24.73;;;12.85;;
45812;SDS011;31519;45.408;10.962;2023-03-01T01:57:41;35.40;;;13.77;;
45812;SDS011;31519;45.408;10.962;2023-03-01T02:00:14;27.70;;;13.48;;
45812;SDS011;31519;45.408;10.962;2023-03-01T02:02:49;25.45;;;13.05;;
45812;SDS011;31519;45.408;10.962;2023-03-01T02:08:06;25.52;;;12.93;;
45812;SDS011;31519;45.408;10.962;2023-03-01T02:10:37;35.22;;;14.13;;
45812;SDS011;31519;45.408;10.962;2023-03-01T02:13:06;34.17;;;14.00;;
45812;SDS011;31519;45.408;10.962;2023-03-01T02:15:35;37.97;;;13.80;;
45812;SDS011;31519;45.408;10.962;2023-03-01T02:18:05;34.78;;;14.30;;
45812;SDS011;31519;45.408;10.962;2023-03-01T02:23:13;26.85;;;14.25;;
45812;SDS011;31519;45.408;10.962;2023-03-01T02:28:23;33.20;;;14.73;;
45812;SDS011;31519;45.408;10.962;2023-03-01T02:31:02;25.75;;;13.23;;
45812;SDS011;31519;45.408;10.962;2023-03-01T02:33:51;34.47;;;13.27;;
45812;SDS011;31519;45.408;10.962;2023-03-01T02:36:24;29.20;;;13.60;;
45812;SDS011;31519;45.408;10.962;2023-03-01T02:38:57;31.77;;;14.15;;
45812;SDS011;31519;45.408;10.962;2023-03-01T02:41:28;30.70;;;13.25;;
45812;SDS011;31519;45.408;10.962;2023-03-01T02:44:03;27.80;;;14.82;;
45812;SDS011;31519;45.408;10.962;2023-03-01T02:46:41;32.65;;;11.82;;
45812;SDS011;31519;45.408;10.962;2023-03-01T02:49:18;27.02;;;11.65;;
45812;SDS011;31519;45.408;10.962;2023-03-01T02:54:43;25.63;;;11.57;;
45812;SDS011;31519;45.408;10.962;2023-03-01T02:57:18;24.98;;;12.57;;
45812;SDS011;31519;45.408;10.962;2023-03-01T02:59:50;23.80;;;12.10;;
45812;SDS011;31519;45.408;10.962;2023-03-01T03:02:21;30.23;;;14.27;;
45812;SDS011;31519;45.408;10.962;2023-03-01T03:05:22;29.08;;;12.65;;
45812;SDS011;31519;45.408;10.962;2023-03-01T03:07:56;30.30;;;12.45;;
45812;SDS011;31519;45.408;10.962;2023-03-01T03:10:31;23.20;;;12.45;;
45812;SDS011;31519;45.408;10.962;2023-03-01T03:13:04;26.00;;;12.95;;
45812;SDS011;31519;45.408;10.962;2023-03-01T03:15:35;25.20;;;13.13;;
45812;SDS011;31519;45.408;10.962;2023-03-01T03:18:04;23.27;;;12.30;;
45812;SDS011;31519;45.408;10.962;2023-03-01T03:20:34;25.70;;;13.50;;
45812;SDS011;31519;45.408;10.962;2023-03-01T03:23:03;27.73;;;13.98;;
45812;SDS011;31519;45.408;10.962;2023-03-01T03:25:32;29.67;;;14.93;;
45812;SDS011;31519;45.408;10.962;2023-03-01T03:28:00;26.30;;;13.65;;
45812;SDS011;31519;45.408;10.962;2023-03-01T03:30:29;27.63;;;14.02;;
45812;SDS011;31519;45.408;10.962;2023-03-01T03:32:59;38.83;;;12.85;;
45812;SDS011;31519;45.408;10.962;2023-03-01T03:35:32;28.35;;;13.27;;
45812;SDS011;31519;45.408;10.962;2023-03-01T03:38:04;33.42;;;13.90;;
45812;SDS011;31519;45.408;10.962;2023-03-01T03:40:36;26.92;;;13.30;;
45812;SDS011;31519;45.408;10.962;2023-03-01T03:43:10;30.35;;;14.63;;
45812;SDS011;31519;45.408;10.962;2023-03-01T03:45:40;37.42;;;15.70;;
45812;SDS011;31519;45.408;10.962;2023-03-01T03:48:08;30.67;;;13.85;;
45812;SDS011;31519;45.408;10.962;2023-03-01T03:50:38;29.33;;;13.43;;
45812;SDS011;31519;45.408;10.962;2023-03-01T03:53:11;29.98;;;13.95;;
45812;SDS011;31519;45.408;10.962;2023-03-01T03:55:40;29.95;;;14.10;;
45812;SDS011;31519;45.408;10.962;2023-03-01T03:58:08;31.80;;;13.75;;
45812;SDS011;31519;45.408;10.962;2023-03-01T04:00:39;25.10;;;13.55;;
45812;SDS011;31519;45.408;10.962;2023-03-01T04:03:09;23.83;;;13.50;;
45812;SDS011;31519;45.408;10.962;2023-03-01T04:05:40;22.50;;;12.52;;
45812;SDS011;31519;45.408;10.962;2023-03-01T04:08:09;22.98;;;12.23;;
45812;SDS011;31519;45.408;10.962;2023-03-01T04:10:38;29.88;;;12.65;;
45812;SDS011;31519;45.408;10.962;2023-03-01T04:13:09;25.23;;;13.27;;
45812;SDS011;31519;45.408;10.962;2023-03-01T04:15:40;35.22;;;13.07;;
45812;SDS011;31519;45.408;10.962;2023-03-01T04:18:13;24.88;;;12.02;;
45812;SDS011;31519;45.408;10.962;2023-03-01T04:20:43;26.80;;;11.55;;
45812;SDS011;31519;45.408;10.962;2023-03-01T04:23:13;24.83;;;13.20;;
45812;SDS011;31519;45.408;10.962;2023-03-01T04:25:51;26.98;;;12.82;;
45812;SDS011;31519;45.408;10.962;2023-03-01T04:28:25;32.28;;;13.82;;
45812;SDS011;31519;45.408;10.962;2023-03-01T04:31:08;33.47;;;12.95;;
45812;SDS011;31519;45.408;10.962;2023-03-01T04:33:44;27.10;;;13.63;;
45812;SDS011;31519;45.408;10.962;2023-03-01T04:36:23;26.42;;;13.32;;
45812;SDS011;31519;45.408;10.962;2023-03-01T04:38:53;23.90;;;12.80;;
45812;SDS011;31519;45.408;10.962;2023-03-01T04:41:22;28.58;;;12.77;;
45812;SDS011;31519;45.408;10.962;2023-03-01T04:43:51;22.02;;;11.88;;
45812;SDS011;31519;45.408;10.962;2023-03-01T04:46:20;22.98;;;11.57;;
45812;SDS011;31519;45.408;10.962;2023-03-01T04:48:49;24.40;;;12.45;;
45812;SDS011;31519;45.408;10.962;2023-03-01T04:51:17;27.30;;;12.68;;
45812;SDS011;31519;45.408;10.962;2023-03-01T04:53:46;36.55;;;12.77;;
45812;SDS011;31519;45.408;10.962;2023-03-01T04:56:14;33.10;;;12.75;;
45812;SDS011;31519;45.408;10.962;2023-03-01T04:58:43;23.27;;;11.85;;
45812;SDS011;31519;45.408;10.962;2023-03-01T05:01:17;31.13;;;14.05;;
45812;SDS011;31519;45.408;10.962;2023-03-01T05:03:47;25.73;;;11.73;;
45812;SDS011;31519;45.408;10.962;2023-03-01T05:06:18;32.33;;;12.35;;
45812;SDS011;31519;45.408;10.962;2023-03-01T05:08:47;23.42;;;12.60;;
45812;SDS011;31519;45.408;10.962;2023-03-01T05:11:15;23.30;;;12.38;;
45812;SDS011;31519;45.408;10.962;2023-03-01T05:13:43;36.45;;;12.68;;
45812;SDS011;31519;45.408;10.962;2023-03-01T05:16:12;25.77;;;13.52;;
45812;SDS011;31519;45.408;10.962;2023-03-01T05:18:40;26.88;;;12.35;;
45812;SDS011;31519;45.408;10.962;2023-03-01T05:21:10;23.98;;;13.05;;
45812;SDS011;31519;45.408;10.962;2023-03-01T05:23:39;24.80;;;13.07;;
45812;SDS011;31519;45.408;10.962;2023-03-01T05:26:08;25.02;;;11.32;;
45812;SDS011;31519;45.408;10.962;2023-03-01T05:28:53;26.05;;;13.48;;
45812;SDS011;31519;45.408;10.962;2023-03-01T05:31:27;21.05;;;12.35;;
45812;SDS011;31519;45.408;10.962;2023-03-01T05:33:55;32.17;;;14.35;;
45812;SDS011;31519;45.408;10.962;2023-03-01T05:36:24;25.17;;;12.48;;
45812;SDS011;31519;45.408;10.962;2023-03-01T05:38:52;27.65;;;14.57;;
45812;SDS011;31519;45.408;10.962;2023-03-01T05:41:20;35.70;;;13.55;;
45812;SDS011;31519;45.408;10.962;2023-03-01T05:43:48;31.58;;;13.77;;
45812;SDS011;31519;45.408;10.962;2023-03-01T05:46:17;24.88;;;13.68;;
45812;SDS011;31519;45.408;10.962;2023-03-01T05:48:45;21.90;;;12.77;;
45812;SDS011;31519;45.408;10.962;2023-03-01T05:51:13;25.95;;;13.35;;
45812;SDS011;31519;45.408;10.962;2023-03-01T05:53:41;24.42;;;12.18;;
45812;SDS011;31519;45.408;10.962;2023-03-01T05:56:09;31.48;;;12.63;;
45812;SDS011;31519;45.408;10.962;2023-03-01T05:58:38;27.33;;;12.90;;
45812;SDS011;31519;45.408;10.962;2023-03-01T06:01:10;30.48;;;14.07;;
45812;SDS011;31519;45.408;10.962;2023-03-01T06:03:39;28.13;;;13.80;;
45812;SDS011;31519;45.408;10.962;2023-03-01T06:06:08;38.20;;;15.35;;
45812;SDS011;31519;45.408;10.962;2023-03-01T06:08:35;28.67;;;13.00;;
45812;SDS011;31519;45.408;10.962;2023-03-01T06:11:04;35.40;;;15.43;;
45812;SDS011;31519;45.408;10.962;2023-03-01T06:13:32;27.15;;;13.27;;
45812;SDS011;31519;45.408;10.962;2023-03-01T06:16:03;33.38;;;14.13;;
45812;SDS011;31519;45.408;10.962;2023-03-01T06:18:33;28.92;;;15.98;;
45812;SDS011;31519;45.408;10.962;2023-03-01T06:21:01;32.60;;;15.70;;
45812;SDS011;31519;45.408;10.962;2023-03-01T06:23:29;28.15;;;13.30;;
45812;SDS011;31519;45.408;10.962;2023-03-01T06:25:58;27.13;;;14.70;;
45812;SDS011;31519;45.408;10.962;2023-03-01T06:28:27;30.77;;;13.23;;
45812;SDS011;31519;45.408;10.962;2023-03-01T06:30:55;31.90;;;14.88;;
45812;SDS011;31519;45.408;10.962;2023-03-01T06:33:23;32.25;;;15.13;;
45812;SDS011;31519;45.408;10.962;2023-03-01T06:35:54;30.20;;;14.10;;
45812;SDS011;31519;45.408;10.962;2023-03-01T06:38:24;36.67;;;12.82;;
45812;SDS011;31519;45.408;10.962;2023-03-01T06:40:53;32.05;;;13.30;;
45812;SDS011;31519;45.408;10.962;2023-03-01T06:43:23;28.80;;;13.77;;
45812;SDS011;31519;45.408;10.962;2023-03-01T06:45:52;28.52;;;14.38;;
45812;SDS011;31519;45.408;10.962;2023-03-01T06:48:20;33.40;;;13.50;;
45812;SDS011;31519;45.408;10.962;2023-03-01T06:50:47;43.40;;;15.25;;
45812;SDS011;31519;45.408;10.962;2023-03-01T06:53:16;44.03;;;13.90;;
45812;SDS011;31519;45.408;10.962;2023-03-01T06:55:43;32.58;;;13.77;;
45812;SDS011;31519;45.408;10.962;2023-03-01T06:58:12;47.10;;;15.15;;
45812;SDS011;31519;45.408;10.962;2023-03-01T07:00:41;33.55;;;13.95;;
45812;SDS011;31519;45.408;10.962;2023-03-01T07:03:10;41.45;;;14.35;;
45812;SDS011;31519;45.408;10.962;2023-03-01T07:05:38;37.83;;;14.00;;
45812;SDS011;31519;45.408;10.962;2023-03-01T07:08:09;45.85;;;15.75;;
45812;SDS011;31519;45.408;10.962;2023-03-01T07:10:36;35.38;;;16.25;;
45812;SDS011;31519;45.408;10.962;2023-03-01T07:13:05;36.10;;;16.67;;
45812;SDS011;31519;45.408;10.962;2023-03-01T07:15:34;36.90;;;15.98;;
45812;SDS011;31519;45.408;10.962;2023-03-01T07:18:02;36.65;;;15.98;;
45812;SDS011;31519;45.408;10.962;2023-03-01T07:20:30;41.78;;;15.60;;
45812;SDS011;31519;45.408;10.962;2023-03-01T07:22:58;35.88;;;16.85;;
45812;SDS011;31519;45.408;10.962;2023-03-01T07:25:26;36.35;;;17.85;;
45812;SDS011;31519;45.408;10.962;2023-03-01T07:27:54;34.80;;;16.58;;
45812;SDS011;31519;45.408;10.962;2023-03-01T07:30:22;34.47;;;16.45;;
45812;SDS011;31519;45.408;10.962;2023-03-01T07:32:54;42.83;;;17.58;;
45812;SDS011;31519;45.408;10.962;2023-03-01T07:35:23;49.28;;;16.83;;
45812;SDS011;31519;45.408;10.962;2023-03-01T07:37:54;33.65;;;16.60;;
45812;SDS011;31519;45.408;10.962;2023-03-01T07:40:22;36.80;;;16.60;;
45812;SDS011;31519;45.408;10.962;2023-03-01T07:42:54;49.92;;;16.95;;
45812;SDS011;31519;45.408;10.962;2023-03-01T07:45:25;33.15;;;16.10;;
45812;SDS011;31519;45.408;10.962;2023-03-01T07:47:54;42.72;;;16.63;;
45812;SDS011;31519;45.408;10.962;2023-03-01T07:50:23;42.45;;;16.40;;
45812;SDS011;31519;45.408;10.962;2023-03-01T07:52:51;34.92;;;16.38;;
45812;SDS011;31519;45.408;10.962;2023-03-01T07:55:19;39.78;;;16.35;;
45812;SDS011;31519;45.408;10.962;2023-03-01T07:57:47;40.25;;;16.40;;
45812;SDS011;31519;45.408;10.962;2023-03-01T08:00:15;34.03;;;16.73;;
45812;SDS011;31519;45.408;10.962;2023-03-01T08:02:44;30.40;;;15.93;;
45812;SDS011;31519;45.408;10.962;2023-03-01T08:05:13;45.30;;;17.25;;
45812;SDS011;31519;45.408;10.962;2023-03-01T08:07:41;48.10;;;17.65;;
45812;SDS011;31519;45.408;10.962;2023-03-01T08:10:10;29.58;;;15.52;;
45812;SDS011;31519;45.408;10.962;2023-03-01T08:12:39;31.42;;;16.67;;
45812;SDS011;31519;45.408;10.962;2023-03-01T08:15:07;37.88;;;15.57;;
45812;SDS011;31519;45.408;10.962;2023-03-01T08:17:35;48.67;;;17.55;;
45812;SDS011;31519;45.408;10.962;2023-03-01T08:20:03;37.42;;;17.73;;
45812;SDS011;31519;45.408;10.962;2023-03-01T08:22:34;45.10;;;18.45;;
45812;SDS011;31519;45.408;10.962;2023-03-01T08:25:02;47.78;;;19.42;;
45812;SDS011;31519;45.408;10.962;2023-03-01T08:27:31;36.35;;;19.15;;
45812;SDS011;31519;45.408;10.962;2023-03-01T08:29:58;36.83;;;18.73;;
45812;SDS011;31519;45.408;10.962;2023-03-01T08:32:27;36.45;;;17.45;;
45812;SDS011;31519;45.408;10.962;2023-03-01T08:34:55;38.45;;;19.33;;
45812;SDS011;31519;45.408;10.962;2023-03-01T08:37:23;35.38;;;18.35;;
45812;SDS011;31519;45.408;10.962;2023-03-01T08:39:51;45.63;;;19.17;;
45812;SDS011;31519;45.408;10.962;2023-03-01T08:42:19;44.08;;;18.75;;
45812;SDS011;31519;45.408;10.962;2023-03-01T08:44:47;47.80;;;20.27;;
45812;SDS011;31519;45.408;10.962;2023-03-01T08:47:16;50.00;;;21.23;;
45812;SDS011;31519;45.408;10.962;2023-03-01T08:49:44;36.85;;;20.00;;
45812;SDS011;31519;45.408;10.962;2023-03-01T08:52:13;47.15;;;20.23;;
45812;SDS011;31519;45.408;10.962;2023-03-01T08:54:41;39.65;;;19.27;;
45812;SDS011;31519;45.408;10.962;2023-03-01T08:57:09;45.25;;;20.00;;
45812;SDS011;31519;45.408;10.962;2023-03-01T08:59:37;38.65;;;19.13;;
45812;SDS011;31519;45.408;10.962;2023-03-01T09:02:08;36.55;;;18.65;;
45812;SDS011;31519;45.408;10.962;2023-03-01T09:04:40;35.92;;;18.10;;
45812;SDS011;31519;45.408;10.962;2023-03-01T09:07:08;41.03;;;20.02;;
45812;SDS011;31519;45.408;10.962;2023-03-01T09:09:37;35.13;;;17.88;;
45812;SDS011;31519;45.408;10.962;2023-03-01T09:12:05;37.17;;;19.42;;
45812;SDS011;31519;45.408;10.962;2023-03-01T09:14:33;30.02;;;14.90;;
45812;SDS011;31519;45.408;10.962;2023-03-01T09:17:02;33.95;;;12.80;;
45812;SDS011;31519;45.408;10.962;2023-03-01T09:19:30;23.45;;;11.40;;
45812;SDS011;31519;45.408;10.962;2023-03-01T09:21:59;23.02;;;11.13;;
45812;SDS011;31519;45.408;10.962;2023-03-01T09:24:27;30.70;;;13.00;;
45812;SDS011;31519;45.408;10.962;2023-03-01T09:26:55;25.85;;;12.48;;
45812;SDS011;31519;45.408;10.962;2023-03-01T09:29:24;32.85;;;12.40;;
45812;SDS011;31519;45.408;10.962;2023-03-01T09:31:53;27.58;;;13.90;;
45812;SDS011;31519;45.408;10.962;2023-03-01T09:34:24;37.53;;;15.38;;
45812;SDS011;31519;45.408;10.962;2023-03-01T09:36:52;31.92;;;16.05;;
45812;SDS011;31519;45.408;10.962;2023-03-01T09:39:21;40.55;;;17.10;;
45812;SDS011;31519;45.408;10.962;2023-03-01T09:41:59;26.75;;;15.43;;
45812;SDS011;31519;45.408;10.962;2023-03-01T09:47:09;28.52;;;16.05;;
45812;SDS011;31519;45.408;10.962;2023-03-01T09:49:45;38.50;;;16.15;;
45812;SDS011;31519;45.408;10.962;2023-03-01T09:55:17;26.42;;;14.32;;
45812;SDS011;31519;45.408;10.962;2023-03-01T09:57:55;34.17;;;15.98;;
45812;SDS011;31519;45.408;10.962;2023-03-01T10:00:39;31.98;;;15.35;;
45812;SDS011;31519;45.408;10.962;2023-03-01T10:14:21;34.97;;;15.85;;
45812;SDS011;31519;45.408;10.962;2023-03-01T10:19:52;30.67;;;16.40;;
45812;SDS011;31519;45.408;10.962;2023-03-01T10:22:29;42.72;;;17.98;;
45812;SDS011;31519;45.408;10.962;2023-03-01T10:24:59;34.90;;;16.45;;
45812;SDS011;31519;45.408;10.962;2023-03-01T10:27:34;36.67;;;16.67;;
45812;SDS011;31519;45.408;10.962;2023-03-01T10:32:50;34.58;;;17.23;;
45812;SDS011;31519;45.408;10.962;2023-03-01T10:35:23;34.50;;;18.65;;
45812;SDS011;31519;45.408;10.962;2023-03-01T10:38:11;34.15;;;16.05;;
45812;SDS011;31519;45.408;10.962;2023-03-01T10:43:49;31.90;;;16.05;;
45812;SDS011;31519;45.408;10.962;2023-03-01T10:51:36;33.50;;;18.17;;
45812;SDS011;31519;45.408;10.962;2023-03-01T10:54:15;37.58;;;16.77;;
45812;SDS011;31519;45.408;10.962;2023-03-01T10:57:04;38.83;;;18.13;;
45812;SDS011;31519;45.408;10.962;2023-03-01T10:59:36;29.92;;;17.23;;
45812;SDS011;31519;45.408;10.962;2023-03-01T11:04:57;32.75;;;16.85;;
45812;SDS011;31519;45.408;10.962;2023-03-01T11:07:25;41.20;;;17.73;;
45812;SDS011;31519;45.408;10.962;2023-03-01T11:09:54;38.83;;;19.08;;
45812;SDS011;31519;45.408;10.962;2023-03-01T11:12:22;33.85;;;18.05;;
45812;SDS011;31519;45.408;10.962;2023-03-01T11:14:54;35.53;;;18.92;;
45812;SDS011;31519;45.408;10.962;2023-03-01T11:20:10;49.00;;;20.10;;
45812;SDS011;31519;45.408;10.962;2023-03-01T11:22:53;32.90;;;17.63;;
45812;SDS011;31519;45.408;10.962;2023-03-01T11:25:26;34.35;;;18.27;;
45812;SDS011;31519;45.408;10.962;2023-03-01T11:28:05;40.85;;;17.13;;
45812;SDS011;31519;45.408;10.962;2023-03-01T11:30:38;35.17;;;18.27;;
45812;SDS011;31519;45.408;10.962;2023-03-01T11:35:49;56.13;;;20.83;;
45812;SDS011;31519;45.408;10.962;2023-03-01T11:38:26;38.13;;;19.55;;
45812;SDS011;31519;45.408;10.962;2023-03-01T11:49:04;30.27;;;17.50;;
45812;SDS011;31519;45.408;10.962;2023-03-01T11:57:09;38.78;;;18.40;;
45812;SDS011;31519;45.408;10.962;2023-03-01T11:59:54;39.28;;;17.33;;
45812;SDS011;31519;45.408;10.962;2023-03-01T13:02:49;14.93;;;4.57;;
45812;SDS011;31519;45.408;10.962;2023-03-01T13:11:29;13.55;;;4.70;;
45812;SDS011;31519;45.408;10.962;2023-03-01T13:14:34;18.33;;;6.20;;
45812;SDS011;31519;45.408;10.962;2023-03-01T13:17:19;15.30;;;5.15;;
45812;SDS011;31519;45.408;10.962;2023-03-01T13:19:59;14.35;;;5.40;;
45812;SDS011;31519;45.408;10.962;2023-03-01T13:22:31;19.77;;;4.82;;
45812;SDS011;31519;45.408;10.962;2023-03-01T13:25:12;30.10;;;4.47;;
45812;SDS011;31519;45.408;10.962;2023-03-01T13:27:46;12.07;;;4.18;;
45812;SDS011;31519;45.408;10.962;2023-03-01T13:35:50;7.95;;;4.90;;
45812;SDS011;31519;45.408;10.962;2023-03-01T13:41:06;24.55;;;4.55;;
45812;SDS011;31519;45.408;10.962;2023-03-01T13:43:36;20.90;;;5.10;;
45812;SDS011;31519;45.408;10.962;2023-03-01T13:46:39;14.27;;;4.03;;
45812;SDS011;31519;45.408;10.962;2023-03-01T13:49:02;17.25;;;4.63;;
45812;SDS011;31519;45.408;10.962;2023-03-01T13:51:30;21.58;;;4.65;;
45812;SDS011;31519;45.408;10.962;2023-03-01T13:53:58;30.88;;;6.05;;
45812;SDS011;31519;45.408;10.962;2023-03-01T13:56:28;16.60;;;4.75;;
45812;SDS011;31519;45.408;10.962;2023-03-01T13:59:14;30.02;;;5.78;;
45812;SDS011;31519;45.408;10.962;2023-03-01T14:01:43;21.00;;;5.93;;
45812;SDS011;31519;45.408;10.962;2023-03-01T14:04:21;32.10;;;5.95;;
45812;SDS011;31519;45.408;10.962;2023-03-01T14:06:51;13.98;;;5.30;;
45812;SDS011;31519;45.408;10.962;2023-03-01T14:09:37;32.53;;;5.32;;
45812;SDS011;31519;45.408;10.962;2023-03-01T14:15:17;10.48;;;4.07;;
45812;SDS011;31519;45.408;10.962;2023-03-01T14:20:41;10.10;;;4.57;;
45812;SDS011;31519;45.408;10.962;2023-03-01T14:26:04;14.05;;;4.40;;
45812;SDS011;31519;45.408;10.962;2023-03-01T14:28:32;14.18;;;4.57;;
45812;SDS011;31519;45.408;10.962;2023-03-01T14:31:02;10.95;;;4.85;;
45812;SDS011;31519;45.408;10.962;2023-03-01T14:33:32;17.95;;;5.05;;
45812;SDS011;31519;45.408;10.962;2023-03-01T14:36:08;27.73;;;4.47;;
45812;SDS011;31519;45.408;10.962;2023-03-01T14:38:39;17.98;;;5.10;;
45812;SDS011;31519;45.408;10.962;2023-03-01T14:41:11;14.77;;;4.85;;
45812;SDS011;31519;45.408;10.962;2023-03-01T14:43:56;21.35;;;5.93;;
45812;SDS011;31519;45.408;10.962;2023-03-01T14:46:38;18.48;;;5.10;;
45812;SDS011;31519;45.408;10.962;2023-03-01T14:49:15;21.52;;;4.70;;
45812;SDS011;31519;45.408;10.962;2023-03-01T14:51:59;14.13;;;4.35;;
45812;SDS011;31519;45.408;10.962;2023-03-01T14:57:20;17.85;;;5.10;;
45812;SDS011;31519;45.408;10.962;2023-03-01T14:59:50;20.90;;;5.57;;
45812;SDS011;31519;45.408;10.962;2023-03-01T15:02:23;16.10;;;4.13;;
45812;SDS011;31519;45.408;10.962;2023-03-01T15:04:56;25.50;;;7.28;;
45812;SDS011;31519;45.408;10.962;2023-03-01T15:07:37;9.35;;;4.13;;
45812;SDS011;31519;45.408;10.962;2023-03-01T15:10:17;10.55;;;3.85;;
45812;SDS011;31519;45.408;10.962;2023-03-01T15:12:49;7.55;;;3.38;;
45812;SDS011;31519;45.408;10.962;2023-03-01T15:15:34;23.90;;;6.63;;
45812;SDS011;31519;45.408;10.962;2023-03-01T15:18:13;23.50;;;6.95;;
45812;SDS011;31519;45.408;10.962;2023-03-01T15:20:42;18.05;;;5.82;;
45812;SDS011;31519;45.408;10.962;2023-03-01T15:23:17;20.85;;;5.30;;
45812;SDS011;31519;45.408;10.962;2023-03-01T15:25:56;14.70;;;5.18;;
45812;SDS011;31519;45.408;10.962;2023-03-01T15:28:29;22.65;;;4.68;;
45812;SDS011;31519;45.408;10.962;2023-03-01T15:31:07;11.70;;;4.90;;
45812;SDS011;31519;45.408;10.962;2023-03-01T15:33:47;14.68;;;4.47;;
45812;SDS011;31519;45.408;10.962;2023-03-01T15:39:01;15.50;;;4.75;;
45812;SDS011;31519;45.408;10.962;2023-03-01T15:44:29;15.55;;;5.47;;
45812;SDS011;31519;45.408;10.962;2023-03-01T15:47:26;18.58;;;5.18;;
45812;SDS011;31519;45.408;10.962;2023-03-01T15:49:58;18.75;;;5.95;;
45812;SDS011;31519;45.408;10.962;2023-03-01T15:52:33;8.25;;;5.40;;
45812;SDS011;31519;45.408;10.962;2023-03-01T15:57:58;17.33;;;5.72;;
45812;SDS011;31519;45.408;10.962;2023-03-01T16:00:34;17.35;;;5.55;;
45812;SDS011;31519;45.408;10.962;2023-03-01T16:03:02;17.77;;;5.35;;
45812;SDS011;31519;45.408;10.962;2023-03-01T16:05:32;11.77;;;5.43;;
45812;SDS011;31519;45.408;10.962;2023-03-01T16:08:02;14.10;;;5.65;;
45812;SDS011;31519;45.408;10.962;2023-03-01T16:10:31;16.80;;;5.85;;
45812;SDS011;31519;45.408;10.962;2023-03-01T16:13:00;13.07;;;4.88;;
45812;SDS011;31519;45.408;10.962;2023-03-01T16:15:29;13.95;;;5.07;;
45812;SDS011;31519;45.408;10.962;2023-03-01T16:17:59;15.00;;;6.07;;
45812;SDS011;31519;45.408;10.962;2023-03-01T16:20:28;13.15;;;5.32;;
45812;SDS011;31519;45.408;10.962;2023-03-01T16:23:00;12.80;;;5.25;;
45812;SDS011;31519;45.408;10.962;2023-03-01T16:25:30;9.05;;;4.57;;
45812;SDS011;31519;45.408;10.962;2023-03-01T16:27:59;15.52;;;5.35;;
45812;SDS011;31519;45.408;10.962;2023-03-01T16:30:32;9.95;;;5.68;;
45812;SDS011;31519;45.408;10.962;2023-03-01T16:33:03;9.63;;;4.53;;
45812;SDS011;31519;45.408;10.962;2023-03-01T16:35:54;8.80;;;5.10;;
45812;SDS011;31519;45.408;10.962;2023-03-01T16:38:23;12.75;;;5.22;;
45812;SDS011;31519;45.408;10.962;2023-03-01T16:40:51;11.43;;;5.40;;
45812;SDS011;31519;45.408;10.962;2023-03-01T16:43:20;13.38;;;5.82;;
45812;SDS011;31519;45.408;10.962;2023-03-01T16:45:48;8.68;;;5.50;;
45812;SDS011;31519;45.408;10.962;2023-03-01T16:48:16;15.00;;;5.80;;
45812;SDS011;31519;45.408;10.962;2023-03-01T16:50:44;11.88;;;5.95;;
45812;SDS011;31519;45.408;10.962;2023-03-01T16:53:12;9.43;;;4.65;;
45812;SDS011;31519;45.408;10.962;2023-03-01T16:55:41;15.98;;;5.57;;
45812;SDS011;31519;45.408;10.962;2023-03-01T16:58:12;9.38;;;5.20;;
45812;SDS011;31519;45.408;10.962;2023-03-01T17:00:43;13.57;;;5.10;;
45812;SDS011;31519;45.408;10.962;2023-03-01T17:03:11;14.85;;;5.85;;
45812;SDS011;31519;45.408;10.962;2023-03-01T17:05:41;16.55;;;5.72;;
45812;SDS011;31519;45.408;10.962;2023-03-01T17:08:12;14.93;;;5.30;;
45812;SDS011;31519;45.408;10.962;2023-03-01T17:10:41;11.27;;;5.45;;
45812;SDS011;31519;45.408;10.962;2023-03-01T17:13:09;12.95;;;5.68;;
45812;SDS011;31519;45.408;10.962;2023-03-01T17:15:41;12.77;;;5.40;;
45812;SDS011;31519;45.408;10.962;2023-03-01T17:18:10;18.85;;;6.95;;
45812;SDS011;31519;45.408;10.962;2023-03-01T17:20:38;24.25;;;9.77;;
45812;SDS011;31519;45.408;10.962;2023-03-01T17:23:06;16.83;;;9.05;;